Date,TemperatureHighF,TemperatureAvgF,TemperatureLowF,DewpointHighF,DewpointAvgF,DewpointLowF,HumidityHigh,HumidityAvg,HumidityLow,PressureMaxIn,PressureMinIn,WindSpeedMaxMPH,WindSpeedAvgMPH,GustSpeedMaxMPH,PrecipitationSumIn
2013-1-1,40,37,33,36,34,31,93,88,80,30.47,30.34,3,1,5,0.03
2013-1-2,45,37,32,36,30,24,93,77,52,30.34,30.17,3,1,7,0.02
2013-1-3,44,37,31,35,30,23,93,76,54,30.18,30.08,5,1,11,0.02
2013-1-4,48,43,38,45,41,36,97,91,85,30.27,30.15,6,2,15,0.11
2013-1-5,44,43,42,42,40,38,93,89,78,30.18,30.09,6,1,15,0.09
2013-1-6,44,43,41,40,39,38,94,87,81,30.16,29.97,7,2,15,0.07
2013-1-7,52,47,42,48,43,39,93,88,82,30.12,29.79,8,3,18,0.06
2013-1-8,51,46,42,49,44,40,94,91,83,30.14,29.70,9,2,23,0.12
2013-1-9,50,42,36,48,39,32,93,90,86,29.93,29.65,7,2,16,0.40
2013-1-10,38,35,33,35,33,30,94,91,88,30.10,29.93,3,1,5,0.31
2013-1-11,37,33,30,31,28,25,90,81,67,30.31,30.09,3,1,7,0.49
2013-1-12,36,32,29,30,28,25,93,85,72,30.43,30.29,3,1,6,0.01
2013-1-13,36,32,29,30,28,26,92,85,69,30.49,30.43,2,0,4,0.01
2013-1-14,40,34,32,32,29,28,90,84,67,30.56,30.47,3,0,8,0.01
2013-1-15,41,36,34,36,32,31,90,86,75,30.69,30.56,3,1,5,0.00
2013-1-16,42,36,32,37,33,30,97,89,77,30.67,30.51,2,1,5,0.00
2013-1-17,37,35,33,35,33,31,94,93,90,30.52,30.29,2,0,4,0.00
2013-1-18,39,36,35,37,34,33,97,93,90,30.34,30.26,2,0,5,0.01
2013-1-19,37,36,35,35,34,33,93,92,90,30.38,30.33,2,0,5,0.01
2013-1-20,41,38,36,38,36,34,94,92,89,30.39,30.26,2,0,5,0.00
2013-1-21,38,37,35,36,34,33,94,92,89,30.27,30.13,1,0,5,0.00
2013-1-22,39,36,33,37,34,31,94,92,88,30.14,29.90,2,0,4,0.00
2013-1-23,44,41,38,40,38,35,93,89,77,30.12,29.84,3,1,8,0.18
2013-1-24,43,41,38,40,38,36,93,90,82,30.20,30.04,3,1,7,0.12
2013-1-25,52,46,41,45,42,37,94,88,73,30.05,29.92,5,2,12,0.12
2013-1-26,45,42,39,41,39,37,92,88,83,30.02,29.87,6,2,12,0.13
2013-1-27,42,40,37,39,37,35,93,89,86,30.05,29.98,5,1,11,0.01
2013-1-28,42,41,39,40,38,36,93,90,88,30.08,30.00,3,0,6,0.12
2013-1-29,47,45,42,45,42,40,93,92,89,30.32,30.08,4,1,15,0.15
2013-1-30,47,46,45,45,44,43,94,93,92,30.37,30.31,3,0,8,0.09
2013-1-31,49,47,46,45,44,44,94,91,85,30.37,30.28,6,1,15,0.09